sensor_id;sensor_type;location;lat;lon;timestamp;pressure;altitude;pressure_sealevel;temperature;humidity
52032;BME280;38044;45.148;39.604;2023-03-18T00:00:43;101152.44;;;10.13;84.58
52032;BME280;38044;45.148;39.604;2023-03-18T00:03:10;101144.09;;;10.10;84.48
52032;BME280;38044;45.148;39.604;2023-03-18T00:05:36;101161.81;;;10.21;84.79
52032;BME280;38044;45.148;39.604;2023-03-18T00:08:03;101142.78;;;10.07;84.87
52032;BME280;38044;45.148;39.604;2023-03-18T00:10:30;101047.59;;;9.54;84.74
52032;BME280;38044;45.148;39.604;2023-03-18T00:12:57;101096.66;;;9.85;84.41
52032;BME280;38044;45.148;39.604;2023-03-18T00:15:24;101134.47;;;10.04;84.40
52032;BME280;38044;45.148;39.604;2023-03-18T00:17:50;101162.31;;;10.38;84.44
52032;BME280;38044;45.148;39.604;2023-03-18T00:20:17;101026.09;;;9.64;84.17
52032;BME280;38044;45.148;39.604;2023-03-18T00:22:53;101136.78;;;10.41;83.71
52032;BME280;38044;45.148;39.604;2023-03-18T00:25:23;101029.28;;;9.76;83.61
52032;BME280;38044;45.148;39.604;2023-03-18T00:27:49;100990.44;;;9.53;82.95
52032;BME280;38044;45.148;39.604;2023-03-18T00:30:15;101134.09;;;10.41;82.78
52032;BME280;38044;45.148;39.604;2023-03-18T00:32:40;101149.09;;;10.52;82.81
52032;BME280;38044;45.148;39.604;2023-03-18T00:35:06;101155.03;;;10.49;82.96
52032;BME280;38044;45.148;39.604;2023-03-18T00:37:32;101166.56;;;10.50;82.98
52032;BME280;38044;45.148;39.604;2023-03-18T00:40:07;101164.41;;;10.52;83.39
52032;BME280;38044;45.148;39.604;2023-03-18T00:42:39;101170.09;;;10.45;82.98
52032;BME280;38044;45.148;39.604;2023-03-18T00:45:13;101184.91;;;10.37;83.02
52032;BME280;38044;45.148;39.604;2023-03-18T00:47:41;101130.94;;;10.13;83.18
52032;BME280;38044;45.148;39.604;2023-03-18T00:50:08;101088.06;;;9.88;83.39
52032;BME280;38044;45.148;39.604;2023-03-18T00:52:35;101168.53;;;10.29;83.05
52032;BME280;38044;45.148;39.604;2023-03-18T00:55:02;101116.44;;;10.04;82.97
52032;BME280;38044;45.148;39.604;2023-03-18T00:57:29;101146.50;;;10.22;82.91
52032;BME280;38044;45.148;39.604;2023-03-18T00:59:56;101012.47;;;9.45;82.54
52032;BME280;38044;45.148;39.604;2023-03-18T01:02:23;101124.25;;;9.96;82.26
52032;BME280;38044;45.148;39.604;2023-03-18T01:04:49;101174.44;;;10.21;82.78
52032;BME280;38044;45.148;39.604;2023-03-18T01:07:16;101166.94;;;10.12;82.86
52032;BME280;38044;45.148;39.604;2023-03-18T01:09:41;101141.75;;;9.93;83.04
52032;BME280;38044;45.148;39.604;2023-03-18T01:12:08;101157.28;;;10.06;83.19
52032;BME280;38044;45.148;39.604;2023-03-18T01:14:36;101164.53;;;10.11;83.06
52032;BME280;38044;45.148;39.604;2023-03-18T01:17:04;101021.91;;;9.22;82.68
52032;BME280;38044;45.148;39.604;2023-03-18T01:19:30;101028.59;;;9.24;82.73
52032;BME280;38044;45.148;39.604;2023-03-18T01:21:56;101177.13;;;10.15;82.19
52032;BME280;38044;45.148;39.604;2023-03-18T01:24:22;101142.78;;;10.07;82.13
52032;BME280;38044;45.148;39.604;2023-03-18T01:26:48;101167.72;;;10.18;81.71
52032;BME280;38044;45.148;39.604;2023-03-18T01:29:14;101179.03;;;10.15;82.02
52032;BME280;38044;45.148;39.604;2023-03-18T01:31:40;101134.25;;;9.85;81.93
52032;BME280;38044;45.148;39.604;2023-03-18T01:34:06;101122.72;;;9.84;81.87
52032;BME280;38044;45.148;39.604;2023-03-18T01:36:32;101054.59;;;9.34;82.16
52032;BME280;38044;45.148;39.604;2023-03-18T01:38:58;101016.25;;;8.98;82.53
52032;BME280;38044;45.148;39.604;2023-03-18T01:41:25;101183.09;;;9.97;82.66
52032;BME280;38044;45.148;39.604;2023-03-18T01:43:52;101082.78;;;9.42;82.41
52032;BME280;38044;45.148;39.604;2023-03-18T01:46:33;101175.03;;;10.07;82.43
52032;BME280;38044;45.148;39.604;2023-03-18T01:49:01;101133.47;;;9.64;82.23
52032;BME280;38044;45.148;39.604;2023-03-18T01:51:28;101183.09;;;9.97;82.40
52032;BME280;38044;45.148;39.604;2023-03-18T01:53:58;101153.84;;;9.80;82.44
52032;BME280;38044;45.148;39.604;2023-03-18T01:56:24;101176.09;;;10.01;82.51
52032;BME280;38044;45.148;39.604;2023-03-18T01:58:53;101033.72;;;9.16;82.34
52032;BME280;38044;45.148;39.604;2023-03-18T02:01:43;101175.53;;;10.14;81.96
52032;BME280;38044;45.148;39.604;2023-03-18T02:04:12;101010.09;;;8.97;81.59
52032;BME280;38044;45.148;39.604;2023-03-18T02:06:38;101158.97;;;9.77;82.29
52032;BME280;38044;45.148;39.604;2023-03-18T02:09:05;101169.97;;;9.90;82.41
52032;BME280;38044;45.148;39.604;2023-03-18T02:11:34;101028.34;;;9.00;82.26
52032;BME280;38044;45.148;39.604;2023-03-18T02:14:02;101165.38;;;9.86;82.13
52032;BME280;38044;45.148;39.604;2023-03-18T02:16:42;101190.34;;;9.97;82.28
52032;BME280;38044;45.148;39.604;2023-03-18T02:19:23;101201.91;;;9.97;82.30
52032;BME280;38044;45.148;39.604;2023-03-18T02:27:33;101218.56;;;9.94;82.65
52032;BME280;38044;45.148;39.604;2023-03-18T02:30:06;101212.63;;;9.97;82.79
52032;BME280;38044;45.148;39.604;2023-03-18T02:32:33;101222.84;;;9.90;82.79
52032;BME280;38044;45.148;39.604;2023-03-18T02:35:03;101186.59;;;9.77;82.93
52032;BME280;38044;45.148;39.604;2023-03-18T02:37:30;101198.44;;;9.76;82.77
52032;BME280;38044;45.148;39.604;2023-03-18T02:40:14;101222.84;;;9.90;83.63
52032;BME280;38044;45.148;39.604;2023-03-18T02:42:41;101185.78;;;9.61;83.21
52032;BME280;38044;45.148;39.604;2023-03-18T02:45:09;101170.78;;;9.60;83.27
52032;BME280;38044;45.148;39.604;2023-03-18T02:47:40;101021.63;;;8.62;83.06
52032;BME280;38044;45.148;39.604;2023-03-18T02:50:08;101141.81;;;9.42;83.27
52032;BME280;38044;45.148;39.604;2023-03-18T02:52:34;101150.38;;;9.44;82.95
52032;BME280;38044;45.148;39.604;2023-03-18T02:55:00;101176.41;;;9.69;83.07
52032;BME280;38044;45.148;39.604;2023-03-18T02:57:26;101194.94;;;9.86;82.85
52032;BME280;38044;45.148;39.604;2023-03-18T02:59:52;101080.91;;;9.17;82.63
52032;BME280;38044;45.148;39.604;2023-03-18T03:02:18;101037.75;;;8.93;82.39
52032;BME280;38044;45.148;39.604;2023-03-18T03:04:44;101209.41;;;9.95;82.31
52032;BME280;38044;45.148;39.604;2023-03-18T03:07:10;101215.84;;;10.09;82.14
52032;BME280;38044;45.148;39.604;2023-03-18T03:09:36;101200.81;;;9.98;82.50
52032;BME280;38044;45.148;39.604;2023-03-18T03:12:02;101225.53;;;10.05;82.69
52032;BME280;38044;45.148;39.604;2023-03-18T03:14:28;101032.63;;;8.86;82.50
52032;BME280;38044;45.148;39.604;2023-03-18T03:16:54;101210.50;;;9.99;82.85
52032;BME280;38044;45.148;39.604;2023-03-18T03:19:20;101216.38;;;10.06;82.66
52032;BME280;38044;45.148;39.604;2023-03-18T03:21:45;101060.25;;;9.07;82.23
52032;BME280;38044;45.148;39.604;2023-03-18T03:24:11;101147.44;;;9.56;82.56
52032;BME280;38044;45.148;39.604;2023-03-18T03:26:37;101181.50;;;9.86;82.51
52032;BME280;38044;45.148;39.604;2023-03-18T03:29:04;101075.00;;;9.10;82.57
52032;BME280;38044;45.148;39.604;2023-03-18T03:31:29;101183.94;;;9.77;82.75
52032;BME280;38044;45.148;39.604;2023-03-18T03:33:56;101187.41;;;9.78;82.85
52032;BME280;38044;45.148;39.604;2023-03-18T03:36:21;101190.63;;;9.75;82.69
52032;BME280;38044;45.148;39.604;2023-03-18T03:38:47;101214.53;;;9.91;83.09
52032;BME280;38044;45.148;39.604;2023-03-18T03:41:13;101206.72;;;9.90;82.72
52032;BME280;38044;45.148;39.604;2023-03-18T03:43:40;101175.06;;;9.66;83.02
52032;BME280;38044;45.148;39.604;2023-03-18T03:46:06;101205.41;;;9.87;82.85
52032;BME280;38044;45.148;39.604;2023-03-18T03:48:33;101214.25;;;9.88;83.12
52032;BME280;38044;45.148;39.604;2023-03-18T03:51:00;101219.63;;;9.88;83.02
52032;BME280;38044;45.148;39.604;2023-03-18T03:53:26;101205.41;;;9.77;83.14
52032;BME280;38044;45.148;39.604;2023-03-18T03:55:53;101230.34;;;9.98;82.92
52032;BME280;38044;45.148;39.604;2023-03-18T03:58:20;101204.06;;;9.80;82.82
52032;BME280;38044;45.148;39.604;2023-03-18T04:00:46;101073.38;;;8.98;82.85
52032;BME280;38044;45.148;39.604;2023-03-18T04:03:11;101235.47;;;10.05;82.81
52032;BME280;38044;45.148;39.604;2023-03-18T04:05:38;101067.75;;;9.00;82.49
52032;BME280;38044;45.148;39.604;2023-03-18T04:08:04;101251.84;;;10.08;82.66
52032;BME280;38044;45.148;39.604;2023-03-18T04:10:30;101247.28;;;10.09;82.68
52032;BME280;38044;45.148;39.604;2023-03-18T04:12:56;101217.47;;;9.90;82.85
52032;BME280;38044;45.148;39.604;2023-03-18T04:15:22;101241.66;;;10.05;82.90
52032;BME280;38044;45.148;39.604;2023-03-18T04:17:48;101260.97;;;10.23;82.76
52032;BME280;38044;45.148;39.604;2023-03-18T04:20:15;101197.91;;;9.79;82.73
52032;BME280;38044;45.148;39.604;2023-03-18T04:22:42;101118.72;;;9.31;82.82
52032;BME280;38044;45.148;39.604;2023-03-18T04:25:10;101260.16;;;10.17;82.60
52032;BME280;38044;45.148;39.604;2023-03-18T04:27:37;101238.16;;;10.00;83.19
52032;BME280;38044;45.148;39.604;2023-03-18T04:30:07;101256.13;;;10.09;83.07
52032;BME280;38044;45.148;39.604;2023-03-18T04:32:34;101235.19;;;9.86;82.99
52032;BME280;38044;45.148;39.604;2023-03-18T04:35:00;101184.19;;;9.60;82.93
52032;BME280;38044;45.148;39.604;2023-03-18T04:37:26;101230.09;;;9.89;83.00
52032;BME280;38044;45.148;39.604;2023-03-18T04:39:51;101192.25;;;9.60;83.62
52032;BME280;38044;45.148;39.604;2023-03-18T04:42:17;101251.28;;;10.01;83.40
52032;BME280;38044;45.148;39.604;2023-03-18T04:44:43;101242.72;;;9.99;83.56
52032;BME280;38044;45.148;39.604;2023-03-18T04:47:10;101225.53;;;9.95;83.05
52032;BME280;38044;45.148;39.604;2023-03-18T04:49:37;101160.06;;;9.50;83.56
52032;BME280;38044;45.148;39.604;2023-03-18T04:52:03;101268.22;;;10.32;83.37
52032;BME280;38044;45.148;39.604;2023-03-18T04:54:30;101229.00;;;10.11;83.19
52032;BME280;38044;45.148;39.604;2023-03-18T04:56:56;101133.22;;;9.50;82.36
52032;BME280;38044;45.148;39.604;2023-03-18T04:59:22;101274.38;;;10.43;82.17
52032;BME280;38044;45.148;39.604;2023-03-18T05:01:48;101249.69;;;10.31;82.48
52032;BME280;38044;45.148;39.604;2023-03-18T05:04:14;101128.91;;;9.54;82.19
52032;BME280;38044;45.148;39.604;2023-03-18T05:06:40;101224.94;;;10.19;82.03
52032;BME280;38044;45.148;39.604;2023-03-18T05:09:06;101162.72;;;9.70;82.13
52032;BME280;38044;45.148;39.604;2023-03-18T05:11:33;101241.59;;;10.26;81.99
52032;BME280;38044;45.148;39.604;2023-03-18T05:13:59;101246.47;;;10.34;81.94
52032;BME280;38044;45.148;39.604;2023-03-18T05:16:25;101233.56;;;10.21;81.70
52032;BME280;38044;45.148;39.604;2023-03-18T05:18:51;101208.56;;;10.15;81.43
52032;BME280;38044;45.148;39.604;2023-03-18T05:21:17;101142.31;;;9.80;81.31
52032;BME280;38044;45.148;39.604;2023-03-18T05:23:43;101252.34;;;10.46;81.02
52032;BME280;38044;45.148;39.604;2023-03-18T05:26:09;101253.44;;;10.40;81.22
52032;BME280;38044;45.148;39.604;2023-03-18T05:28:36;101219.59;;;10.34;81.05
52032;BME280;38044;45.148;39.604;2023-03-18T05:31:02;101153.81;;;10.01;80.91
52032;BME280;38044;45.148;39.604;2023-03-18T05:33:28;101276.47;;;10.72;80.72
52032;BME280;38044;45.148;39.604;2023-03-18T05:35:54;101240.50;;;10.52;80.98
52032;BME280;38044;45.148;39.604;2023-03-18T05:38:20;101260.34;;;10.67;80.81
52032;BME280;38044;45.148;39.604;2023-03-18T05:40:46;101278.34;;;10.76;80.84
52032;BME280;38044;45.148;39.604;2023-03-18T05:43:12;101240.47;;;10.57;80.75
52032;BME280;38044;45.148;39.604;2023-03-18T05:45:38;101236.19;;;10.56;79.94
52032;BME280;38044;45.148;39.604;2023-03-18T05:48:04;101278.59;;;10.80;80.18
52032;BME280;38044;45.148;39.604;2023-03-18T05:50:40;101285.56;;;10.86;80.20
52032;BME280;38044;45.148;39.604;2023-03-18T05:53:07;101266.25;;;10.69;80.27
52032;BME280;38044;45.148;39.604;2023-03-18T05:55:34;101241.03;;;10.49;80.25
52032;BME280;38044;45.148;39.604;2023-03-18T05:58:00;101287.75;;;10.79;80.21
52032;BME280;38044;45.148;39.604;2023-03-18T06:00:28;101264.94;;;10.61;80.48
52032;BME280;38044;45.148;39.604;2023-03-18T06:02:55;101139.59;;;9.90;80.36
52032;BME280;38044;45.148;39.604;2023-03-18T06:05:22;101299.00;;;10.91;80.35
52032;BME280;38044;45.148;39.604;2023-03-18T06:07:49;101142.81;;;9.97;79.91
52032;BME280;38044;45.148;39.604;2023-03-18T06:10:16;101273.75;;;10.77;80.14
52032;BME280;38044;45.148;39.604;2023-03-18T06:12:42;101261.69;;;10.69;79.95
52032;BME280;38044;45.148;39.604;2023-03-18T06:15:10;101219.53;;;10.44;79.96
52032;BME280;38044;45.148;39.604;2023-03-18T06:17:37;101262.78;;;10.68;79.85
52032;BME280;38044;45.148;39.604;2023-03-18T06:20:07;101283.69;;;10.81;80.04
52032;BME280;38044;45.148;39.604;2023-03-18T06:22:34;101274.81;;;10.81;79.92
52032;BME280;38044;45.148;39.604;2023-03-18T06:25:00;101259.78;;;10.75;79.40
52032;BME280;38044;45.148;39.604;2023-03-18T06:27:26;101300.53;;;11.08;79.78
52032;BME280;38044;45.148;39.604;2023-03-18T06:29:52;101126.13;;;10.10;79.50
52032;BME280;38044;45.148;39.604;2023-03-18T06:32:18;101184.81;;;10.58;78.93
52032;BME280;38044;45.148;39.604;2023-03-18T06:34:44;101289.69;;;11.23;78.84
52032;BME280;38044;45.148;39.604;2023-03-18T06:37:10;101294.19;;;11.38;78.78
52032;BME280;38044;45.148;39.604;2023-03-18T06:39:36;101295.75;;;11.49;78.56
52032;BME280;38044;45.148;39.604;2023-03-18T06:42:02;101310.50;;;11.57;77.93
52032;BME280;38044;45.148;39.604;2023-03-18T06:44:28;101287.34;;;11.56;78.07
52032;BME280;38044;45.148;39.604;2023-03-18T06:46:54;101279.34;;;11.45;77.66
52032;BME280;38044;45.148;39.604;2023-03-18T06:49:20;101142.09;;;10.62;77.80
52032;BME280;38044;45.148;39.604;2023-03-18T06:51:46;101280.34;;;11.55;77.70
52032;BME280;38044;45.148;39.604;2023-03-18T06:54:13;101172.56;;;10.91;77.36
52032;BME280;38044;45.148;39.604;2023-03-18T06:56:39;101242.81;;;11.34;77.13
52032;BME280;38044;45.148;39.604;2023-03-18T06:59:07;101293.69;;;11.75;77.24
52032;BME280;38044;45.148;39.604;2023-03-18T07:01:34;101286.00;;;11.53;77.28
52032;BME280;38044;45.148;39.604;2023-03-18T07:04:01;101266.94;;;11.49;77.38
52032;BME280;38044;45.148;39.604;2023-03-18T07:06:28;101310.63;;;11.76;77.25
52032;BME280;38044;45.148;39.604;2023-03-18T07:08:58;101299.59;;;11.77;77.06
52032;BME280;38044;45.148;39.604;2023-03-18T07:11:26;101209.00;;;11.18;76.19
52032;BME280;38044;45.148;39.604;2023-03-18T07:13:52;101263.72;;;11.47;76.42
52032;BME280;38044;45.148;39.604;2023-03-18T07:16:18;101310.97;;;11.69;76.21
52032;BME280;38044;45.148;39.604;2023-03-18T07:18:44;101281.50;;;11.43;76.21
52032;BME280;38044;45.148;39.604;2023-03-18T07:21:11;101307.25;;;11.60;76.62
52032;BME280;38044;45.148;39.604;2023-03-18T07:23:38;101203.75;;;10.92;77.04
52032;BME280;38044;45.148;39.604;2023-03-18T07:26:05;101317.47;;;11.63;76.90
52032;BME280;38044;45.148;39.604;2023-03-18T07:28:31;101260.06;;;11.28;76.83
52032;BME280;38044;45.148;39.604;2023-03-18T07:30:57;101312.66;;;11.60;76.86
52032;BME280;38044;45.148;39.604;2023-03-18T07:33:23;101320.25;;;11.47;77.09
52032;BME280;38044;45.148;39.604;2023-03-18T07:35:49;101324.53;;;11.54;77.36
52032;BME280;38044;45.148;39.604;2023-03-18T07:38:15;101315.34;;;11.60;77.04
52032;BME280;38044;45.148;39.604;2023-03-18T07:40:42;101314.81;;;11.58;77.25
52032;BME280;38044;45.148;39.604;2023-03-18T07:43:08;101312.88;;;11.63;77.06
52032;BME280;38044;45.148;39.604;2023-03-18T07:45:34;101317.72;;;11.66;77.03
52032;BME280;38044;45.148;39.604;2023-03-18T07:48:00;101295.47;;;11.50;77.17
52032;BME280;38044;45.148;39.604;2023-03-18T07:50:26;101307.72;;;11.67;77.31
52032;BME280;38044;45.148;39.604;2023-03-18T07:52:52;101159.22;;;10.76;77.10
52032;BME280;38044;45.148;39.604;2023-03-18T07:55:18;101279.25;;;11.61;76.40
52032;BME280;38044;45.148;39.604;2023-03-18T07:57:44;101212.25;;;11.15;76.62
52032;BME280;38044;45.148;39.604;2023-03-18T08:00:11;101312.97;;;11.92;76.36
52032;BME280;38044;45.148;39.604;2023-03-18T08:02:38;101325.78;;;12.11;76.36
52032;BME280;38044;45.148;39.604;2023-03-18T08:05:05;101272.56;;;11.92;75.39
52032;BME280;38044;45.148;39.604;2023-03-18T08:07:32;101198.75;;;11.59;75.07
52032;BME280;38044;45.148;39.604;2023-03-18T08:09:59;101323.50;;;12.52;74.51
52032;BME280;38044;45.148;39.604;2023-03-18T08:12:26;101319.38;;;12.60;73.52
52032;BME280;38044;45.148;39.604;2023-03-18T08:14:52;101152.78;;;11.50;72.97
52032;BME280;38044;45.148;39.604;2023-03-18T08:17:18;101310.81;;;12.53;73.69
52032;BME280;38044;45.148;39.604;2023-03-18T08:19:44;101284.25;;;12.41;73.39
52032;BME280;38044;45.148;39.604;2023-03-18T08:22:11;101323.97;;;12.83;72.94
52032;BME280;38044;45.148;39.604;2023-03-18T08:24:37;101320.72;;;12.87;72.70
52032;BME280;38044;45.148;39.604;2023-03-18T08:27:04;101324.50;;;12.85;72.39
52032;BME280;38044;45.148;39.604;2023-03-18T08:29:30;101335.34;;;12.80;72.55
52032;BME280;38044;45.148;39.604;2023-03-18T08:31:57;101327.31;;;12.75;73.09
52032;BME280;38044;45.148;39.604;2023-03-18T08:34:23;101329.19;;;12.51;73.61
52032;BME280;38044;45.148;39.604;2023-03-18T08:36:49;101323.50;;;12.52;73.99
52032;BME280;38044;45.148;39.604;2023-03-18T08:39:15;101258.41;;;12.11;73.59
52032;BME280;38044;45.148;39.604;2023-03-18T08:41:41;101306.53;;;12.52;73.75
52032;BME280;38044;45.148;39.604;2023-03-18T08:44:07;101278.63;;;12.37;73.33
52032;BME280;38044;45.148;39.604;2023-03-18T08:46:36;101312.28;;;12.69;73.02
52032;BME280;38044;45.148;39.604;2023-03-18T08:49:02;101337.78;;;12.82;72.69
52032;BME280;38044;45.148;39.604;2023-03-18T08:51:29;101214.13;;;12.17;72.72
52032;BME280;38044;45.148;39.604;2023-03-18T08:53:54;101339.81;;;12.90;72.63
52032;BME280;38044;45.148;39.604;2023-03-18T08:56:21;101325.69;;;12.98;71.96
52032;BME280;38044;45.148;39.604;2023-03-18T08:58:47;101304.56;;;12.81;72.00
52032;BME280;38044;45.148;39.604;2023-03-18T09:01:13;101304.66;;;12.76;71.60
52032;BME280;38044;45.148;39.604;2023-03-18T09:03:40;101324.19;;;12.87;71.55
52032;BME280;38044;45.148;39.604;2023-03-18T09:06:06;101316.50;;;12.75;72.23
52032;BME280;38044;45.148;39.604;2023-03-18T09:08:32;101329.59;;;12.87;72.34
52032;BME280;38044;45.148;39.604;2023-03-18T09:10:58;101330.41;;;12.88;72.27
52032;BME280;38044;45.148;39.604;2023-03-18T09:13:25;101332.81;;;12.89;72.16
52032;BME280;38044;45.148;39.604;2023-03-18T09:15:51;101296.19;;;12.59;73.03
52032;BME280;38044;45.148;39.604;2023-03-18T09:18:18;101228.22;;;12.09;73.97
52032;BME280;38044;45.148;39.604;2023-03-18T09:20:44;101185.75;;;11.66;74.35
52032;BME280;38044;45.148;39.604;2023-03-18T09:23:11;101323.31;;;12.44;75.08
52032;BME280;38044;45.148;39.604;2023-03-18T09:25:38;101324.88;;;12.50;75.38
52032;BME280;38044;45.148;39.604;2023-03-18T09:28:04;101300.09;;;12.48;74.76
52032;BME280;38044;45.148;39.604;2023-03-18T09:30:30;101274.69;;;12.54;73.99
52032;BME280;38044;45.148;39.604;2023-03-18T09:32:57;101236.22;;;12.19;74.43
52032;BME280;38044;45.148;39.604;2023-03-18T09:35:23;101177.59;;;12.06;74.03
52032;BME280;38044;45.148;39.604;2023-03-18T09:37:49;101265.44;;;12.60;73.59
52032;BME280;38044;45.148;39.604;2023-03-18T09:40:31;101320.94;;;13.14;74.19
52032;BME280;38044;45.148;39.604;2023-03-18T09:49:08;101299.94;;;13.30;73.85
52032;BME280;38044;45.148;39.604;2023-03-18T09:54:32;101139.59;;;12.31;73.03
52032;BME280;38044;45.148;39.604;2023-03-18T09:57:02;101264.41;;;12.99;73.02
52032;BME280;38044;45.148;39.604;2023-03-18T10:01:57;101273.41;;;13.13;72.48
52032;BME280;38044;45.148;39.604;2023-03-18T10:04:43;101298.22;;;13.39;72.59
52032;BME280;38044;45.148;39.604;2023-03-18T10:07:14;101301.88;;;13.24;72.86
52032;BME280;38044;45.148;39.604;2023-03-18T10:09:46;101262.41;;;12.91;73.26
52032;BME280;38044;45.148;39.604;2023-03-18T10:14:57;101296.16;;;13.31;73.74
52032;BME280;38044;45.148;39.604;2023-03-18T10:17:30;101197.81;;;12.75;73.21
52032;BME280;38044;45.148;39.604;2023-03-18T10:19:59;101280.88;;;13.21;72.98
52032;BME280;38044;45.148;39.604;2023-03-18T10:22:55;101289.53;;;13.42;72.59
52032;BME280;38044;45.148;39.604;2023-03-18T10:25:35;101294.03;;;13.47;72.83
52032;BME280;38044;45.148;39.604;2023-03-18T10:36:21;101193.53;;;12.74;72.93
52032;BME280;38044;45.148;39.604;2023-03-18T10:38:49;101238.41;;;13.08;72.58
52032;BME280;38044;45.148;39.604;2023-03-18T10:41:29;101238.16;;;13.04;72.83
52032;BME280;38044;45.148;39.604;2023-03-18T10:43:57;101248.91;;;13.10;73.26
52032;BME280;38044;45.148;39.604;2023-03-18T10:46:26;101235.34;;;13.15;72.91
52032;BME280;38044;45.148;39.604;2023-03-18T10:52:04;101274.28;;;13.51;72.53
52032;BME280;38044;45.148;39.604;2023-03-18T10:54:39;101140.66;;;12.73;72.25
52032;BME280;38044;45.148;39.604;2023-03-18T10:57:07;101255.16;;;13.48;71.66
52032;BME280;38044;45.148;39.604;2023-03-18T10:59:37;101273.69;;;13.73;71.83
52032;BME280;38044;45.148;39.604;2023-03-18T11:02:14;101252.75;;;13.79;71.10
52032;BME280;38044;45.148;39.604;2023-03-18T11:04:59;101248.19;;;13.93;71.02
52032;BME280;38044;45.148;39.604;2023-03-18T11:07:27;101274.84;;;14.00;70.30
52032;BME280;38044;45.148;39.604;2023-03-18T11:09:53;101264.88;;;13.82;70.42
52032;BME280;38044;45.148;39.604;2023-03-18T11:12:28;101244.38;;;13.81;70.15
52032;BME280;38044;45.148;39.604;2023-03-18T11:14:54;101198.44;;;13.48;70.04
52032;BME280;38044;45.148;39.604;2023-03-18T11:17:28;101216.22;;;13.68;70.33
52032;BME280;38044;45.148;39.604;2023-03-18T11:22:31;101263.84;;;13.96;70.72
52032;BME280;38044;45.148;39.604;2023-03-18T11:25:02;101235.25;;;13.77;70.99
52032;BME280;38044;45.148;39.604;2023-03-18T11:27:38;101272.06;;;14.05;70.55
52032;BME280;38044;45.148;39.604;2023-03-18T11:32:50;101266.81;;;13.95;70.73
52032;BME280;38044;45.148;39.604;2023-03-18T11:35:23;101132.69;;;13.01;71.04
52032;BME280;38044;45.148;39.604;2023-03-18T11:37:50;101142.28;;;13.31;70.73
52032;BME280;38044;45.148;39.604;2023-03-18T11:40:22;101129.63;;;13.26;70.37
52032;BME280;38044;45.148;39.604;2023-03-18T11:42:57;101258.06;;;14.17;70.51
52032;BME280;38044;45.148;39.604;2023-03-18T11:48:01;101134.41;;;13.48;70.07
52032;BME280;38044;45.148;39.604;2023-03-18T11:50:38;101261.97;;;14.25;70.18
52032;BME280;38044;45.148;39.604;2023-03-18T11:53:38;101260.00;;;14.44;69.87
52032;BME280;38044;45.148;39.604;2023-03-18T11:56:28;101268.72;;;14.41;69.95
52032;BME280;38044;45.148;39.604;2023-03-18T12:04:31;101144.50;;;13.24;70.57
52032;BME280;38044;45.148;39.604;2023-03-18T12:07:10;101270.97;;;14.06;70.49
52032;BME280;38044;45.148;39.604;2023-03-18T12:20:51;101274.41;;;13.93;71.18
52032;BME280;38044;45.148;39.604;2023-03-18T12:23:42;101273.50;;;13.84;71.29
52032;BME280;38044;45.148;39.604;2023-03-18T12:26:39;101270.91;;;13.92;71.03
52032;BME280;38044;45.148;39.604;2023-03-18T12:32:25;101276.06;;;13.75;71.76
52032;BME280;38044;45.148;39.604;2023-03-18T12:35:27;101276.53;;;13.63;71.78
52032;BME280;38044;45.148;39.604;2023-03-18T12:40:38;101276.91;;;13.38;72.61
52032;BME280;38044;45.148;39.604;2023-03-18T12:46:30;101263.66;;;13.17;72.91
52032;BME280;38044;45.148;39.604;2023-03-18T12:49:20;101143.13;;;12.51;73.24
52032;BME280;38044;45.148;39.604;2023-03-18T12:55:20;101265.56;;;13.36;73.03
52032;BME280;38044;45.148;39.604;2023-03-18T13:03:31;101233.84;;;12.84;73.93
52032;BME280;38044;45.148;39.604;2023-03-18T13:16:58;101233.78;;;12.90;74.75
52032;BME280;38044;45.148;39.604;2023-03-18T13:19:24;101231.22;;;12.79;74.67
52032;BME280;38044;45.148;39.604;2023-03-18T13:30:13;101258.84;;;13.14;74.85
52032;BME280;38044;45.148;39.604;2023-03-18T13:43:23;101168.34;;;12.36;75.74
52032;BME280;38044;45.148;39.604;2023-03-18T13:45:52;101166.97;;;12.38;75.45
52032;BME280;38044;45.148;39.604;2023-03-18T13:50:52;101216.31;;;12.63;76.04
52032;BME280;38044;45.148;39.604;2023-03-18T13:53:25;101217.91;;;12.64;76.14
52032;BME280;38044;45.148;39.604;2023-03-18T13:58:24;101238.69;;;12.63;76.27
52032;BME280;38044;45.148;39.604;2023-03-18T14:08:53;101238.34;;;12.70;76.74
52032;BME280;38044;45.148;39.604;2023-03-18T14:13:50;101098.16;;;11.74;76.72
52032;BME280;38044;45.148;39.604;2023-03-18T14:16:26;101032.00;;;11.39;77.07
52032;BME280;38044;45.148;39.604;2023-03-18T14:18:58;101252.81;;;12.79;76.68
52032;BME280;38044;45.148;39.604;2023-03-18T14:21:28;101236.38;;;12.76;76.74
52032;BME280;38044;45.148;39.604;2023-03-18T14:29:50;101236.69;;;12.93;75.79
52032;BME280;38044;45.148;39.604;2023-03-18T14:35:21;101220.50;;;12.74;76.30
52032;BME280;38044;45.148;39.604;2023-03-18T14:40:51;101249.81;;;12.81;76.87
52032;BME280;38044;45.148;39.604;2023-03-18T14:43:31;101254.84;;;12.88;76.61
52032;BME280;38044;45.148;39.604;2023-03-18T14:46:02;101234.78;;;12.75;76.61
52032;BME280;38044;45.148;39.604;2023-03-18T14:48:31;101127.19;;;12.06;76.60
52032;BME280;38044;45.148;39.604;2023-03-18T14:51:18;101253.47;;;12.90;76.64
52032;BME280;38044;45.148;39.604;2023-03-18T14:53:49;101236.22;;;12.67;76.62
52032;BME280;38044;45.148;39.604;2023-03-18T14:56:24;101119.53;;;11.94;76.57
52032;BME280;38044;45.148;39.604;2023-03-18T14:58:53;101244.41;;;12.62;76.74
52032;BME280;38044;45.148;39.604;2023-03-18T15:01:31;101236.75;;;12.69;77.20